KFYG Airport (Washington Rgnl) Information

FAA: FYG - ICAO: KFYG

KFYG Airport Location

State Missouri
County Warren
City Washington
KFYG Airport is 3 miles north of Washington, MO.
Latitude 38-35-15.3000N
Longitude 090-59-37.7000W
Elevation 487ft

KFYG Airport METARs

METAR KFYG 262315Z AUTO 00000KT 10SM 07/M09 A3004 RMK AO2
Altimeter 30.04"
Temperature 7.0°C (44.6°F)
Wind 0° at 0KT
Clouds at 0ft
Visibility 10.0mi
Time observed: 2021-11-26T23:15:00Z

KFYG Airport Details

Status Operational
Activation N/A
Ownership Public
Usage Public
Chart ST LOUIS
ATC on-site No
Beacon schedule sunset-sunrise
Beacon color clear green

KFYG Airport Contacts

Owner CITY OF WASHINGTON
Owner address 405 JEFFERSON STREET, WASHINGTON, MO 63090
Owner phone 636-390-1006
Manager ROD HOOPER
Manager address PO BOX 227, URBANA, MO 65767
Manager phone 417-993-5447

KFYG Airport (Washington Rgnl) Radio Frequencies

KFYG (Airport) Radio Frequencies

UNICOM 122.8
Common traffic advisory frequency (CTAF) 122.8